Time;durP1;ratioP1;P1;durP2;ratioP2;P2;SDS_P1;SDS_P2;PMS_P1;PMS_P2;Temp;Humidity;BMP_temperature;BMP_pressure;BME280_temperature;BME280_humidity;BME280_pressure;Samples;Min_cycle;Max_cycle;Signal;HPM_P1;HPM_P2
2021/12/28 00:01:20;;;;;;;61.00;32.20;;;-2.20;99.90;;;;;;5074603;28;20191;-64
2021/12/28 00:03:45;;;;;;;54.13;32.17;;;-2.20;99.90;;;;;;5077635;28;20529;-61
2021/12/28 00:06:13;;;;;;;62.27;34.80;;;-2.20;99.90;;;;;;5075274;28;20193;-64
2021/12/28 00:08:38;;;;;;;63.27;32.37;;;-2.20;99.90;;;;;;5076085;28;20167;-62
2021/12/28 00:11:05;;;;;;;60.10;34.87;;;-2.20;99.90;;;;;;5075127;28;20198;-62
2021/12/28 00:13:33;;;;;;;60.40;35.13;;;-2.20;99.90;;;;;;5074690;28;20303;-63
2021/12/28 00:17:58;;;;;;;59.37;32.80;;;-2.30;99.90;;;;;;5076443;28;20223;-62
2021/12/28 00:18:48;;;;;;;56.37;33.83;;;-2.20;99.90;;;;;;5073001;28;20668;-65
2021/12/28 00:21:14;;;;;;;59.87;34.73;;;-2.30;99.90;;;;;;5074871;28;20193;-63
2021/12/28 00:23:40;;;;;;;63.30;34.70;;;-2.30;99.90;;;;;;5075607;28;20203;-63
2021/12/28 00:26:08;;;;;;;58.03;35.40;;;-2.30;99.90;;;;;;5073802;28;20202;-64
2021/12/28 00:28:34;;;;;;;62.90;34.73;;;-2.30;99.90;;;;;;5069372;28;20270;-72
2021/12/28 00:31:00;;;;;;;61.30;34.90;;;-2.40;99.90;;;;;;5064880;28;20201;-71
2021/12/28 00:33:26;;;;;;;56.63;33.53;;;-2.40;99.90;;;;;;5052957;28;20195;-71
2021/12/28 00:35:53;;;;;;;64.43;33.90;;;-2.30;99.90;;;;;;5066000;28;20223;-72
2021/12/28 00:38:22;;;;;;;64.60;34.80;;;-2.30;99.90;;;;;;5056476;28;20202;-72
2021/12/28 00:40:55;;;;;;;63.30;35.10;;;-2.40;99.90;;;;;;5059060;28;20552;-73
2021/12/28 00:43:21;;;;;;;60.53;34.07;;;-2.40;99.90;;;;;;5064888;28;20622;-71
2021/12/28 00:45:48;;;;;;;55.57;33.20;;;-2.50;99.90;;;;;;5066626;28;20252;-71
2021/12/28 00:48:14;;;;;;;74.60;37.40;;;-2.40;99.90;;;;;;5057141;28;20200;-72
2021/12/28 00:50:41;;;;;;;64.87;34.93;;;-2.40;99.90;;;;;;5058578;28;20218;-73
2021/12/28 00:53:07;;;;;;;64.30;32.77;;;-2.30;99.90;;;;;;5063686;28;20277;-71
2021/12/28 00:55:33;;;;;;;51.07;30.37;;;-2.30;99.90;;;;;;5054940;28;20575;-70
2021/12/28 00:57:59;;;;;;;64.37;36.80;;;-2.40;99.90;;;;;;5063551;28;20293;-70
2021/12/28 01:00:29;;;;;;;64.40;35.27;;;-2.40;99.90;;;;;;5057465;28;20249;-69
2021/12/28 01:02:57;;;;;;;64.37;35.83;;;-2.50;99.90;;;;;;5064098;28;20198;-70
2021/12/28 01:05:23;;;;;;;70.93;37.67;;;-2.60;99.90;;;;;;5049877;28;20178;-70
2021/12/28 01:07:49;;;;;;;71.83;35.90;;;-2.60;99.90;;;;;;5063591;28;20593;-70
2021/12/28 01:10:18;;;;;;;67.00;36.17;;;-2.60;99.90;;;;;;5054815;28;20595;-71
2021/12/28 01:12:44;;;;;;;63.47;33.93;;;-2.60;99.90;;;;;;5063241;28;20279;-69
2021/12/28 01:15:13;;;;;;;82.70;36.50;;;-2.60;99.90;;;;;;5065604;28;20709;-69
2021/12/28 01:17:39;;;;;;;66.03;32.83;;;-2.60;99.90;;;;;;5062931;28;20286;-69
2021/12/28 01:20:07;;;;;;;61.43;37.37;;;-2.50;99.90;;;;;;5065272;28;20716;-69
2021/12/28 01:22:33;;;;;;;74.37;38.27;;;-2.50;99.90;;;;;;5061688;28;20276;-69
2021/12/28 01:24:59;;;;;;;68.73;35.93;;;-2.50;99.90;;;;;;5054133;28;20184;-71
2021/12/28 01:27:24;;;;;;;64.60;37.00;;;-2.50;99.90;;;;;;5063678;28;20306;-71
2021/12/28 01:29:50;;;;;;;62.60;34.87;;;-2.50;99.90;;;;;;5058063;28;20185;-70
2021/12/28 01:32:15;;;;;;;65.80;36.57;;;-2.50;99.90;;;;;;5064318;28;20196;-74
2021/12/28 01:34:41;;;;;;;71.13;36.37;;;-2.50;99.90;;;;;;5052628;28;20219;-71
2021/12/28 01:37:07;;;;;;;61.53;36.57;;;-2.60;99.90;;;;;;5063079;28;20229;-71
2021/12/28 01:39:33;;;;;;;62.60;35.30;;;-2.60;99.90;;;;;;5071921;28;20739;-71
2021/12/28 01:42:02;;;;;;;63.07;34.60;;;-2.60;99.90;;;;;;5074816;28;20197;-73
2021/12/28 01:44:29;;;;;;;62.97;33.67;;;-2.70;99.90;;;;;;5071822;28;20258;-72
2021/12/28 01:46:55;;;;;;;65.17;35.27;;;-2.60;99.90;;;;;;5075750;28;20654;-72
2021/12/28 01:49:20;;;;;;;67.47;36.30;;;-2.60;99.90;;;;;;5070997;28;20201;-71
2021/12/28 01:51:46;;;;;;;69.97;36.57;;;-2.60;99.90;;;;;;5075202;28;20582;-71
2021/12/28 01:54:13;;;;;;;71.80;38.00;;;-2.60;99.90;;;;;;5072126;28;20196;-71
2021/12/28 01:56:42;;;;;;;69.33;35.07;;;-2.60;99.90;;;;;;5070267;28;20594;-71
2021/12/28 01:59:12;;;;;;;64.53;35.67;;;-2.50;99.90;;;;;;5068674;28;20233;-71
2021/12/28 02:01:38;;;;;;;74.70;37.80;;;-2.60;99.90;;;;;;5065184;28;20665;-70
2021/12/28 02:04:15;;;;;;;61.80;33.07;;;-2.60;99.90;;;;;;5048106;28;20195;-70
2021/12/28 02:06:40;;;;;;;60.10;32.87;;;-2.60;99.90;;;;;;5045534;28;20187;-69
2021/12/28 02:09:06;;;;;;;65.80;35.80;;;-2.60;99.90;;;;;;5050564;28;20233;-70
2021/12/28 02:11:31;;;;;;;70.37;35.23;;;-2.60;99.90;;;;;;5064795;28;20203;-71
2021/12/28 02:13:57;;;;;;;64.10;34.57;;;-2.60;99.90;;;;;;5071018;28;20215;-70
2021/12/28 02:16:22;;;;;;;72.10;35.30;;;-2.60;99.90;;;;;;5074127;28;20203;-69
2021/12/28 02:18:48;;;;;;;62.67;35.63;;;-2.60;99.90;;;;;;5070976;28;20327;-69
2021/12/28 02:21:14;;;;;;;66.10;34.90;;;-2.60;99.90;;;;;;5074011;28;20182;-70
2021/12/28 02:23:40;;;;;;;70.47;35.57;;;-2.70;99.90;;;;;;5072811;28;20229;-71
2021/12/28 02:26:06;;;;;;;66.93;36.20;;;-2.70;99.90;;;;;;5074364;28;20225;-71
2021/12/28 02:28:32;;;;;;;67.50;35.47;;;-2.70;99.90;;;;;;5070768;28;20292;-73
2021/12/28 02:30:58;;;;;;;61.47;35.27;;;-2.70;99.90;;;;;;5060913;28;20220;-72
2021/12/28 02:33:25;;;;;;;63.93;36.53;;;-2.70;99.90;;;;;;5054338;28;20912;-71
2021/12/28 02:35:53;;;;;;;59.27;35.87;;;-2.80;99.90;;;;;;5064887;28;20302;-68
2021/12/28 02:38:19;;;;;;;58.57;33.30;;;-2.80;99.90;;;;;;5062627;28;20202;-66
2021/12/28 02:40:45;;;;;;;63.03;35.87;;;-2.70;99.90;;;;;;5065171;28;20275;-62
2021/12/28 02:43:14;;;;;;;68.90;38.47;;;-2.80;99.90;;;;;;5055937;28;20305;-63
2021/12/28 02:45:50;;;;;;;64.23;36.67;;;-2.80;99.90;;;;;;5058710;28;20194;-63
2021/12/28 02:48:16;;;;;;;69.43;35.07;;;-2.80;99.90;;;;;;5058135;28;20289;-82
2021/12/28 02:50:49;;;;;;;67.13;33.97;;;-2.90;99.90;;;;;;5070464;28;20309;-62
2021/12/28 02:53:17;;;;;;;60.93;34.77;;;-2.90;99.90;;;;;;5073884;28;20217;-63
2021/12/28 02:55:43;;;;;;;71.50;35.27;;;-2.90;99.90;;;;;;5077033;28;20196;-64
2021/12/28 02:58:23;;;;;;;67.87;33.60;;;-2.90;99.90;;;;;;5074493;28;20195;-62
2021/12/28 03:01:02;;;;;;;67.30;36.27;;;-2.90;99.90;;;;;;5077306;28;20184;-62
2021/12/28 03:03:30;;;;;;;72.00;36.50;;;-2.90;99.90;;;;;;5072478;28;20197;-63
2021/12/28 03:05:58;;;;;;;68.20;35.87;;;-2.90;99.90;;;;;;5077600;28;20616;-63
2021/12/28 03:08:25;;;;;;;74.17;36.20;;;-2.90;99.90;;;;;;5076390;28;20201;-62
2021/12/28 03:10:51;;;;;;;73.20;36.30;;;-3.00;99.90;;;;;;5077944;28;20259;-64
2021/12/28 03:13:23;;;;;;;61.57;34.07;;;-2.90;99.90;;;;;;5075581;28;20287;-63
2021/12/28 03:15:49;;;;;;;64.13;35.90;;;-2.90;99.90;;;;;;5074975;28;20748;-63
2021/12/28 03:18:15;;;;;;;69.93;36.27;;;-2.90;99.90;;;;;;5075568;28;20217;-63
2021/12/28 03:20:41;;;;;;;67.83;34.10;;;-2.90;99.90;;;;;;5074670;28;20660;-64
2021/12/28 03:23:06;;;;;;;68.73;35.97;;;-3.00;99.90;;;;;;5074327;28;20293;-64
2021/12/28 03:25:32;;;;;;;72.50;39.77;;;-2.90;99.90;;;;;;5078176;28;20179;-64
2021/12/28 03:28:00;;;;;;;61.67;36.63;;;-2.90;99.90;;;;;;5075553;28;20193;-62
2021/12/28 03:30:25;;;;;;;66.10;35.50;;;-3.00;99.90;;;;;;5076977;28;20717;-64
2021/12/28 03:32:51;;;;;;;79.17;37.63;;;-2.90;99.90;;;;;;5077689;28;20297;-62
2021/12/28 03:35:17;;;;;;;67.77;35.77;;;-2.90;99.90;;;;;;5075779;28;20214;-63
2021/12/28 03:37:43;;;;;;;72.13;36.80;;;-2.90;99.90;;;;;;5075099;28;20322;-64
2021/12/28 03:40:13;;;;;;;72.13;36.70;;;-2.90;99.90;;;;;;5075666;28;20551;-62
2021/12/28 03:42:39;;;;;;;72.77;38.77;;;-3.00;99.90;;;;;;5073880;28;20228;-65
2021/12/28 03:45:07;;;;;;;63.43;35.93;;;-3.00;99.90;;;;;;5077877;28;20182;-63
2021/12/28 03:47:32;;;;;;;69.43;34.50;;;-3.00;99.90;;;;;;5073766;28;20286;-63
2021/12/28 03:49:58;;;;;;;63.43;34.80;;;-3.00;99.90;;;;;;5075715;28;20269;-63
2021/12/28 03:52:23;;;;;;;67.60;37.93;;;-3.00;99.90;;;;;;5073809;28;20191;-63
2021/12/28 03:54:49;;;;;;;64.37;37.23;;;-2.90;99.90;;;;;;5075227;28;20243;-63
2021/12/28 03:57:15;;;;;;;68.30;36.97;;;-3.00;99.90;;;;;;5075468;28;20193;-63
2021/12/28 03:59:40;;;;;;;72.93;36.73;;;-3.00;99.90;;;;;;5077595;28;20598;-63
2021/12/28 04:02:06;;;;;;;76.63;35.70;;;-2.90;99.90;;;;;;5074240;28;20223;-63
2021/12/28 04:04:31;;;;;;;71.57;36.37;;;-2.90;99.90;;;;;;5077216;28;20698;-62
2021/12/28 04:06:57;;;;;;;67.70;36.20;;;-2.80;99.90;;;;;;5063155;28;20202;-64
2021/12/28 04:09:56;;;;;;;65.13;35.77;;;-2.80;99.90;;;;;;5051294;28;20191;-65
2021/12/28 04:12:11;;;;;;;64.97;37.00;;;-2.80;99.90;;;;;;5056028;28;20203;-63
2021/12/28 04:14:36;;;;;;;68.83;39.00;;;-2.80;99.90;;;;;;5062584;28;20221;-63
2021/12/28 04:17:02;;;;;;;65.00;37.53;;;-2.90;99.90;;;;;;5062620;28;20318;-63
2021/12/28 04:19:27;;;;;;;69.47;36.70;;;-2.90;99.90;;;;;;5055947;28;20187;-65
2021/12/28 04:21:53;;;;;;;75.60;38.87;;;-2.90;99.90;;;;;;5063437;28;20225;-64
2021/12/28 04:24:19;;;;;;;63.67;36.43;;;-2.90;99.90;;;;;;5047635;28;20169;-64
2021/12/28 04:26:44;;;;;;;62.47;34.60;;;-2.80;99.90;;;;;;5063813;28;20194;-64
2021/12/28 04:29:10;;;;;;;74.00;36.93;;;-2.80;99.90;;;;;;5057847;28;20186;-63
2021/12/28 04:31:35;;;;;;;65.97;34.97;;;-2.80;99.90;;;;;;5066844;28;21000;-63
2021/12/28 04:34:01;;;;;;;79.43;36.13;;;-2.80;99.90;;;;;;5050724;28;20203;-64
2021/12/28 04:36:26;;;;;;;71.97;37.67;;;-2.80;99.90;;;;;;5066662;28;20807;-64
2021/12/28 04:38:52;;;;;;;71.20;37.00;;;-2.80;99.90;;;;;;5056970;28;20198;-62
2021/12/28 04:41:18;;;;;;;72.97;38.07;;;-2.80;99.90;;;;;;5076853;28;20187;-63
2021/12/28 04:43:45;;;;;;;69.53;35.33;;;-2.80;99.90;;;;;;5073796;28;20187;-61
2021/12/28 04:46:11;;;;;;;71.23;36.63;;;-2.80;99.90;;;;;;5076645;28;20665;-63
2021/12/28 04:48:36;;;;;;;71.70;38.80;;;-2.80;99.90;;;;;;5071566;28;20245;-62
2021/12/28 04:51:03;;;;;;;71.40;35.90;;;-2.80;99.90;;;;;;5051853;28;20209;-63
2021/12/28 04:53:29;;;;;;;70.70;37.10;;;-2.80;99.90;;;;;;5064616;28;20194;-62
2021/12/28 04:55:54;;;;;;;74.67;36.87;;;-2.80;99.90;;;;;;5054262;28;20731;-65
2021/12/28 04:58:20;;;;;;;67.77;36.97;;;-2.80;99.90;;;;;;5062203;28;20191;-65
2021/12/28 05:00:48;;;;;;;70.77;38.40;;;-2.80;99.90;;;;;;5059413;28;20187;-64
2021/12/28 05:03:15;;;;;;;75.20;39.47;;;-2.80;99.90;;;;;;5062261;28;20196;-63
2021/12/28 05:05:43;;;;;;;77.00;40.70;;;-2.80;99.90;;;;;;5060281;28;20222;-62
2021/12/28 05:08:11;;;;;;;83.43;39.63;;;-2.80;99.90;;;;;;5063496;28;20196;-62
2021/12/28 05:10:37;;;;;;;72.33;36.80;;;-2.70;99.90;;;;;;5056276;28;20190;-62
2021/12/28 05:13:03;;;;;;;66.13;37.40;;;-2.70;99.90;;;;;;5065860;28;20228;-62
2021/12/28 05:15:29;;;;;;;65.00;36.07;;;-2.60;99.90;;;;;;5048139;28;20693;-62
2021/12/28 05:17:54;;;;;;;68.57;39.17;;;-2.60;99.90;;;;;;5062633;28;20277;-62
2021/12/28 05:20:20;;;;;;;68.70;37.67;;;-2.60;99.90;;;;;;5052660;28;20289;-62
2021/12/28 05:22:46;;;;;;;74.67;36.97;;;-2.50;99.90;;;;;;5065555;28;20222;-63
2021/12/28 05:25:11;;;;;;;80.37;38.90;;;-2.50;99.90;;;;;;5057532;28;20293;-64
2021/12/28 05:27:37;;;;;;;69.47;37.90;;;-2.50;99.90;;;;;;5065733;28;20690;-65
2021/12/28 05:30:06;;;;;;;70.43;36.40;;;-2.50;99.90;;;;;;5054326;28;20207;-64
2021/12/28 05:32:31;;;;;;;76.17;38.33;;;-2.40;99.90;;;;;;5065602;28;20515;-64
2021/12/28 05:34:57;;;;;;;72.13;38.03;;;-2.40;99.90;;;;;;5052637;28;20863;-64
2021/12/28 05:37:22;;;;;;;80.23;39.20;;;-2.40;99.90;;;;;;5065874;28;20506;-64
2021/12/28 05:39:49;;;;;;;67.17;36.07;;;-2.40;99.90;;;;;;5063469;28;20825;-64
2021/12/28 05:42:14;;;;;;;64.73;36.77;;;-2.30;99.90;;;;;;5065193;28;20217;-64
2021/12/28 05:44:39;;;;;;;70.47;37.37;;;-2.30;99.90;;;;;;5050848;28;20252;-63
2021/12/28 05:47:05;;;;;;;63.17;34.53;;;-2.30;99.90;;;;;;5063414;28;20657;-64
2021/12/28 05:49:31;;;;;;;77.60;38.20;;;-2.30;99.90;;;;;;5063203;28;20190;-64
2021/12/28 05:51:56;;;;;;;66.87;38.17;;;-2.40;99.90;;;;;;5060675;28;20195;-64
2021/12/28 05:54:22;;;;;;;73.33;36.60;;;-2.40;99.90;;;;;;5062937;28;20210;-64
2021/12/28 05:56:47;;;;;;;67.73;37.87;;;-2.40;99.90;;;;;;5065937;28;20740;-63
2021/12/28 05:59:13;;;;;;;76.00;40.87;;;-2.30;99.90;;;;;;5063381;28;20419;-62
2021/12/28 06:01:38;;;;;;;80.17;38.93;;;-2.40;99.90;;;;;;5065411;28;20303;-63
2021/12/28 06:04:04;;;;;;;74.57;37.87;;;-2.30;99.90;;;;;;5063241;28;20696;-64
2021/12/28 06:06:30;;;;;;;69.30;36.73;;;-2.30;99.90;;;;;;5060096;28;20554;-63
2021/12/28 06:08:56;;;;;;;73.53;38.10;;;-2.40;99.90;;;;;;5061409;28;20205;-62
2021/12/28 06:11:21;;;;;;;74.93;39.77;;;-2.40;99.90;;;;;;5053017;28;20645;-63
2021/12/28 06:13:47;;;;;;;75.73;40.57;;;-2.30;99.90;;;;;;5057651;28;20257;-63
2021/12/28 06:16:15;;;;;;;69.80;36.77;;;-2.30;99.90;;;;;;5056019;28;20423;-62
2021/12/28 06:18:40;;;;;;;69.33;37.93;;;-2.30;99.90;;;;;;5061369;28;20223;-63
2021/12/28 06:21:06;;;;;;;83.07;40.17;;;-2.30;99.90;;;;;;5065334;28;20393;-63
2021/12/28 06:23:32;;;;;;;70.37;39.67;;;-2.30;99.90;;;;;;5059808;28;20207;-63
2021/12/28 06:25:57;;;;;;;70.73;38.23;;;-2.30;99.90;;;;;;5056840;28;20194;-63
2021/12/28 06:28:23;;;;;;;82.17;39.63;;;-2.20;99.90;;;;;;5062358;28;20222;-64
2021/12/28 06:30:48;;;;;;;74.23;39.97;;;-2.30;99.90;;;;;;5049721;28;20506;-63
2021/12/28 06:33:15;;;;;;;73.30;38.70;;;-2.30;99.90;;;;;;5061535;28;20289;-64
2021/12/28 06:35:41;;;;;;;70.70;38.03;;;-2.20;99.90;;;;;;5045250;28;20661;-63
2021/12/28 06:38:06;;;;;;;75.80;37.87;;;-2.20;99.90;;;;;;5063981;28;20281;-64
2021/12/28 06:40:32;;;;;;;70.87;36.97;;;-2.20;99.90;;;;;;5058951;28;20187;-64
2021/12/28 06:42:57;;;;;;;79.70;38.23;;;-2.10;99.90;;;;;;5064194;28;20190;-64
2021/12/28 06:45:23;;;;;;;71.87;38.93;;;-2.10;99.90;;;;;;5055023;28;20199;-63
2021/12/28 06:47:49;;;;;;;70.07;36.47;;;-2.10;99.90;;;;;;5064371;28;20302;-63
2021/12/28 06:50:15;;;;;;;73.47;36.40;;;-2.10;99.90;;;;;;5048549;28;20206;-63
2021/12/28 06:52:40;;;;;;;79.67;39.70;;;-1.90;99.90;;;;;;5068727;28;20206;-62
2021/12/28 06:55:08;;;;;;;67.37;37.53;;;-2.00;99.90;;;;;;5049627;28;20210;-63
2021/12/28 06:57:33;;;;;;;71.27;37.33;;;-2.00;99.90;;;;;;5063454;28;20187;-62
2021/12/28 06:59:59;;;;;;;79.73;39.40;;;-2.00;99.90;;;;;;5058015;28;20206;-63
2021/12/28 07:02:24;;;;;;;76.37;38.17;;;-1.90;99.90;;;;;;5064822;28;20281;-62
2021/12/28 07:04:50;;;;;;;66.70;37.90;;;-1.90;99.90;;;;;;5049041;28;20991;-62
2021/12/28 07:07:16;;;;;;;69.60;37.47;;;-1.90;99.90;;;;;;5065197;28;20195;-62
2021/12/28 07:09:42;;;;;;;70.07;41.00;;;-1.90;99.90;;;;;;5052453;28;20203;-62
2021/12/28 07:12:08;;;;;;;74.60;39.33;;;-1.90;99.90;;;;;;5065108;28;20286;-62
2021/12/28 07:14:36;;;;;;;77.20;41.60;;;-1.90;99.90;;;;;;5056091;28;20232;-62
2021/12/28 07:17:02;;;;;;;69.33;38.70;;;-1.90;99.90;;;;;;5066792;28;20653;-62
2021/12/28 07:19:28;;;;;;;70.33;37.43;;;-1.80;99.90;;;;;;5057607;28;20206;-62
2021/12/28 07:21:53;;;;;;;80.00;38.77;;;-1.70;99.90;;;;;;5057511;28;20217;-62
2021/12/28 07:24:19;;;;;;;78.20;38.73;;;-1.70;99.90;;;;;;5051225;28;20209;-62
2021/12/28 07:26:45;;;;;;;68.33;38.93;;;-1.80;99.90;;;;;;5064411;28;20223;-62
2021/12/28 07:29:12;;;;;;;73.90;40.20;;;-1.80;99.90;;;;;;5063072;28;20216;-62
2021/12/28 07:31:38;;;;;;;72.67;38.17;;;-1.80;99.90;;;;;;5064828;28;20196;-63
2021/12/28 07:34:04;;;;;;;76.87;39.27;;;-1.70;99.90;;;;;;5055216;28;20665;-63
2021/12/28 07:36:29;;;;;;;67.63;38.53;;;-1.70;99.90;;;;;;5064259;28;20219;-63
2021/12/28 07:38:55;;;;;;;79.43;39.67;;;-1.70;99.90;;;;;;5062828;28;20227;-62
2021/12/28 07:41:21;;;;;;;83.50;38.37;;;-1.60;99.90;;;;;;5076997;28;20175;-62
2021/12/28 07:43:47;;;;;;;78.33;39.50;;;-1.70;99.90;;;;;;5069839;28;20199;-63
2021/12/28 07:46:12;;;;;;;82.20;41.10;;;-1.70;99.90;;;;;;5049707;28;20203;-63
2021/12/28 07:48:39;;;;;;;73.63;38.30;;;-1.70;99.90;;;;;;5048512;28;20280;-63
2021/12/28 07:51:04;;;;;;;73.37;37.60;;;-1.70;99.90;;;;;;5062051;28;20229;-63
2021/12/28 07:53:30;;;;;;;74.93;38.57;;;-1.60;99.90;;;;;;5068487;28;20190;-63
2021/12/28 07:55:57;;;;;;;71.17;38.40;;;-1.70;99.90;;;;;;5051525;28;20208;-63
2021/12/28 07:58:23;;;;;;;73.13;40.37;;;-1.70;99.90;;;;;;5048314;28;20193;-63
2021/12/28 08:00:48;;;;;;;71.73;40.10;;;-1.70;99.90;;;;;;5059835;28;20198;-63
2021/12/28 08:03:14;;;;;;;68.23;36.33;;;-1.60;99.90;;;;;;5068116;28;20196;-62
2021/12/28 08:05:39;;;;;;;76.97;40.73;;;-1.60;99.90;;;;;;5053630;28;20197;-63
2021/12/28 08:08:05;;;;;;;73.47;39.37;;;-1.50;99.90;;;;;;5047715;28;20829;-63
2021/12/28 08:10:31;;;;;;;78.17;38.90;;;-1.50;99.90;;;;;;5057425;28;20195;-63
2021/12/28 08:12:56;;;;;;;70.47;37.40;;;-1.50;99.90;;;;;;5067913;28;20201;-63
2021/12/28 08:15:24;;;;;;;72.83;38.90;;;-1.50;99.90;;;;;;5055606;28;20227;-63
2021/12/28 08:17:49;;;;;;;71.90;39.83;;;-1.50;99.90;;;;;;5058141;28;20183;-63
2021/12/28 08:20:16;;;;;;;71.23;39.03;;;-1.50;99.90;;;;;;5075406;28;20599;-64
2021/12/28 08:22:43;;;;;;;72.37;37.87;;;-1.50;99.90;;;;;;5076289;28;20592;-64
2021/12/28 08:25:13;;;;;;;74.03;39.10;;;-1.40;99.90;;;;;;5075282;28;20207;-64
2021/12/28 08:27:39;;;;;;;74.40;40.97;;;-1.40;99.90;;;;;;5076277;28;20202;-63
2021/12/28 08:30:07;;;;;;;74.30;38.07;;;-1.30;99.90;;;;;;5075037;28;20542;-62
2021/12/28 08:32:33;;;;;;;63.00;37.00;;;-1.30;99.90;;;;;;5076936;28;20180;-62
2021/12/28 08:34:58;;;;;;;72.60;38.03;;;-1.30;99.90;;;;;;5074190;28;20206;-63
2021/12/28 08:37:24;;;;;;;75.30;38.50;;;-1.30;99.90;;;;;;5078018;28;20540;-62
2021/12/28 08:39:50;;;;;;;77.97;39.93;;;-1.30;99.90;;;;;;5074327;28;20573;-62
2021/12/28 08:42:15;;;;;;;66.70;37.17;;;-1.20;99.90;;;;;;5076866;28;20642;-62
2021/12/28 08:44:41;;;;;;;71.23;38.43;;;-1.20;99.90;;;;;;5074728;28;20206;-62
2021/12/28 08:47:06;;;;;;;74.53;38.30;;;-1.20;99.90;;;;;;5073222;28;20229;-64
2021/12/28 08:49:32;;;;;;;67.93;36.63;;;-1.30;99.90;;;;;;5061667;28;20242;-71
2021/12/28 08:51:57;;;;;;;75.43;39.00;;;-1.20;99.90;;;;;;5055242;28;20634;-72
2021/12/28 08:54:23;;;;;;;75.83;39.90;;;-1.20;99.90;;;;;;5071812;28;20191;-71
2021/12/28 08:56:50;;;;;;;77.53;37.73;;;-1.20;99.90;;;;;;5075890;28;20229;-69
2021/12/28 08:59:16;;;;;;;65.17;35.40;;;-1.20;99.90;;;;;;5072683;28;20663;-71
2021/12/28 09:01:42;;;;;;;60.47;38.43;;;-1.20;99.90;;;;;;5076340;28;20269;-69
2021/12/28 09:04:07;;;;;;;72.57;37.83;;;-1.10;99.90;;;;;;5071787;28;20280;-72
2021/12/28 09:06:33;;;;;;;68.67;36.40;;;-1.10;99.90;;;;;;5050097;28;20212;-72
2021/12/28 09:08:59;;;;;;;71.50;39.03;;;-1.00;99.90;;;;;;5066217;28;20280;-72
2021/12/28 09:11:24;;;;;;;73.63;39.40;;;-1.00;99.90;;;;;;5054112;28;20366;-71
2021/12/28 09:13:51;;;;;;;68.40;37.37;;;-1.10;99.90;;;;;;5042983;28;20234;-73
2021/12/28 09:16:16;;;;;;;72.93;38.90;;;-1.00;99.90;;;;;;5049322;28;20208;-72
2021/12/28 09:18:42;;;;;;;71.20;37.53;;;-1.00;99.90;;;;;;5054592;28;20262;-71
2021/12/28 09:21:08;;;;;;;63.27;35.77;;;-1.00;99.90;;;;;;5060039;28;20192;-72
2021/12/28 09:23:35;;;;;;;71.27;39.20;;;-0.90;99.90;;;;;;5063521;28;20190;-72
2021/12/28 09:26:00;;;;;;;71.23;39.00;;;-0.90;99.90;;;;;;5064964;28;20621;-72
2021/12/28 09:28:26;;;;;;;70.23;37.93;;;-0.80;99.90;;;;;;5063387;28;20233;-71
2021/12/28 09:30:52;;;;;;;69.87;36.73;;;-0.70;99.90;;;;;;5052490;28;20945;-72
2021/12/28 09:33:18;;;;;;;64.03;36.00;;;-0.70;99.90;;;;;;5062928;28;20420;-72
2021/12/28 09:35:44;;;;;;;66.50;34.87;;;-0.60;99.90;;;;;;5052652;28;20971;-73
2021/12/28 09:38:10;;;;;;;73.60;37.43;;;-0.70;99.90;;;;;;5063637;28;20292;-72
2021/12/28 09:40:36;;;;;;;75.23;38.57;;;-0.60;99.90;;;;;;5052073;28;20187;-72
2021/12/28 09:43:05;;;;;;;61.30;34.70;;;-0.60;99.90;;;;;;5063372;28;20232;-72
2021/12/28 09:45:33;;;;;;;69.97;37.13;;;-0.60;99.90;;;;;;5056335;28;20196;-72
2021/12/28 09:47:58;;;;;;;69.50;35.63;;;-0.60;99.90;;;;;;5062679;28;20270;-71
2021/12/28 09:50:24;;;;;;;67.07;37.53;;;-0.50;99.90;;;;;;5063830;28;20577;-71
2021/12/28 09:52:51;;;;;;;70.87;35.27;;;-0.40;99.90;;;;;;5061275;28;20864;-71
2021/12/28 09:55:21;;;;;;;71.57;36.80;;;-0.40;99.90;;;;;;5056807;28;20216;-73
2021/12/28 09:57:48;;;;;;;71.90;37.27;;;-0.40;99.90;;;;;;5052948;28;20206;-72
2021/12/28 10:00:15;;;;;;;69.97;37.00;;;-0.40;99.90;;;;;;5052002;28;20189;-72
2021/12/28 10:02:40;;;;;;;67.13;35.47;;;-0.40;99.90;;;;;;5061770;28;20602;-72
2021/12/28 10:05:16;;;;;;;66.60;37.57;;;-0.40;99.90;;;;;;5046742;28;20291;-72
2021/12/28 10:07:47;;;;;;;64.90;36.70;;;-0.40;99.90;;;;;;5053874;28;20195;-72
2021/12/28 10:10:13;;;;;;;70.53;35.97;;;-0.30;99.90;;;;;;5048525;28;20196;-72
2021/12/28 10:12:44;;;;;;;74.13;36.17;;;-0.20;99.90;;;;;;5062806;28;20221;-72
2021/12/28 10:15:23;;;;;;;72.87;36.03;;;-0.20;99.90;;;;;;5050266;28;20240;-72
2021/12/28 10:17:50;;;;;;;65.67;36.40;;;-0.20;99.90;;;;;;5060932;28;20188;-71
2021/12/28 10:20:35;;;;;;;68.33;35.37;;;-0.20;99.90;;;;;;5057734;28;20212;-71
2021/12/28 10:23:10;;;;;;;69.13;36.90;;;-0.20;99.90;;;;;;5056882;28;20210;-72
2021/12/28 10:25:48;;;;;;;69.93;35.83;;;-0.20;99.90;;;;;;5059153;28;20265;-72
2021/12/28 10:28:24;;;;;;;69.53;36.33;;;-0.10;99.90;;;;;;5061330;28;20200;-71
2021/12/28 10:30:53;;;;;;;60.93;32.57;;;0.00;99.90;;;;;;5052897;28;20650;-72
2021/12/28 10:33:22;;;;;;;65.83;35.93;;;0.00;99.90;;;;;;5056286;28;20207;-72
2021/12/28 10:35:52;;;;;;;69.93;37.90;;;0.00;99.90;;;;;;5060250;28;20214;-72
2021/12/28 10:38:21;;;;;;;68.53;36.20;;;0.10;99.90;;;;;;5056404;28;20693;-72
2021/12/28 10:40:54;;;;;;;68.47;36.97;;;0.10;99.90;;;;;;5056799;28;20331;-72
2021/12/28 10:43:24;;;;;;;67.10;34.40;;;0.20;99.90;;;;;;5056388;28;20284;-72
2021/12/28 10:46:00;;;;;;;60.27;34.67;;;0.40;99.90;;;;;;5056784;28;20559;-72
2021/12/28 10:48:33;;;;;;;65.73;35.00;;;0.50;99.90;;;;;;5054620;28;20200;-72
2021/12/28 10:51:08;;;;;;;70.03;36.63;;;0.50;99.90;;;;;;5055805;28;20224;-73
2021/12/28 10:56:57;;;;;;;62.03;35.77;;;0.70;99.90;;;;;;5063135;28;20248;-70
2021/12/28 10:59:27;;;;;;;62.13;33.63;;;0.70;99.90;;;;;;5042724;28;20213;-71
2021/12/28 11:01:54;;;;;;;74.13;36.37;;;0.80;99.90;;;;;;5052708;28;20189;-72
2021/12/28 11:04:20;;;;;;;62.73;34.63;;;0.80;99.90;;;;;;5045901;28;20209;-71
2021/12/28 11:06:51;;;;;;;61.73;34.60;;;0.80;99.90;;;;;;5057664;28;20197;-72
2021/12/28 11:09:20;;;;;;;57.87;32.87;;;0.80;99.90;;;;;;5045412;28;20209;-71
2021/12/28 11:11:47;;;;;;;55.40;34.07;;;0.90;99.90;;;;;;5064565;28;20199;-72
2021/12/28 11:14:15;;;;;;;60.43;31.57;;;0.90;99.90;;;;;;5056304;28;20218;-70
2021/12/28 11:16:41;;;;;;;52.83;32.00;;;0.90;99.90;;;;;;5057717;28;20202;-72
2021/12/28 11:19:09;;;;;;;57.00;33.43;;;1.00;99.90;;;;;;5054418;28;20197;-70
2021/12/28 11:21:41;;;;;;;59.10;33.67;;;1.00;99.90;;;;;;5068383;28;20211;-72
2021/12/28 11:24:13;;;;;;;61.47;33.80;;;1.00;99.90;;;;;;5055124;28;20224;-72
2021/12/28 11:26:42;;;;;;;58.00;32.07;;;1.00;99.90;;;;;;5050486;28;20279;-72
2021/12/28 11:29:16;;;;;;;58.73;32.63;;;1.00;99.90;;;;;;5054096;28;20240;-72
2021/12/28 11:31:45;;;;;;;59.87;32.70;;;0.90;99.90;;;;;;5066063;28;20245;-71
2021/12/28 11:34:22;;;;;;;55.63;31.23;;;0.90;99.90;;;;;;5052915;28;20210;-72
2021/12/28 11:37:10;;;;;;;58.47;33.20;;;1.00;99.90;;;;;;5067287;28;20260;-72
2021/12/28 11:39:41;;;;;;;51.60;31.30;;;1.00;99.90;;;;;;5049508;28;20695;-71
2021/12/28 11:42:09;;;;;;;59.13;31.97;;;1.10;99.90;;;;;;5060683;28;20205;-71
2021/12/28 11:44:35;;;;;;;54.57;29.93;;;1.10;99.90;;;;;;5066089;28;20194;-71
2021/12/28 11:47:03;;;;;;;54.50;31.83;;;1.10;99.90;;;;;;5053880;28;20210;-72
2021/12/28 11:49:29;;;;;;;58.47;31.07;;;1.10;99.90;;;;;;5065392;28;20201;-71
2021/12/28 11:51:58;;;;;;;58.27;30.20;;;1.10;99.90;;;;;;5059462;28;20189;-71
2021/12/28 11:54:25;;;;;;;54.27;30.50;;;1.10;99.90;;;;;;5059879;28;20213;-71
2021/12/28 11:56:57;;;;;;;51.50;29.97;;;1.10;99.90;;;;;;5045687;28;20739;-71
2021/12/28 11:59:28;;;;;;;50.37;29.90;;;1.20;99.90;;;;;;5066811;28;20607;-71
2021/12/28 12:02:02;;;;;;;59.70;30.13;;;1.20;99.90;;;;;;5061449;28;20204;-71
2021/12/28 12:04:31;;;;;;;51.43;29.63;;;1.30;99.90;;;;;;5066435;28;20189;-71
2021/12/28 12:07:01;;;;;;;53.90;29.23;;;1.40;99.90;;;;;;5056698;28;20565;-71
2021/12/28 12:09:28;;;;;;;54.10;29.50;;;1.30;99.90;;;;;;5065842;28;20651;-71
2021/12/28 12:12:09;;;;;;;47.00;28.83;;;1.30;99.90;;;;;;5053386;28;20210;-71
2021/12/28 12:15:01;;;;;;;46.53;27.90;;;1.40;99.90;;;;;;5066358;28;20229;-71
2021/12/28 12:17:38;;;;;;;52.00;30.13;;;1.40;99.90;;;;;;5053550;28;20226;-71
2021/12/28 12:20:09;;;;;;;49.47;28.73;;;1.40;99.90;;;;;;5047237;28;20190;-72
2021/12/28 12:22:40;;;;;;;56.13;29.67;;;1.40;99.90;;;;;;5049663;28;20213;-72
2021/12/28 12:25:48;;;;;;;55.00;29.43;;;1.40;99.90;;;;;;5064995;28;20230;-72
2021/12/28 12:28:18;;;;;;;46.77;27.70;;;1.40;99.90;;;;;;5055370;28;20201;-71
2021/12/28 12:30:46;;;;;;;51.57;28.17;;;1.40;99.90;;;;;;5057103;28;20619;-70
2021/12/28 12:33:13;;;;;;;50.97;29.80;;;1.40;99.90;;;;;;5052558;28;20244;-70